createdAt,value
2016-08-04T00:00:50.962Z,67.3
2016-08-04T00:01:50.564Z,67.49
2016-08-04T00:02:50.271Z,67.4
2016-08-04T00:03:50.983Z,67.3
2016-08-04T00:04:50.982Z,67.2
2016-08-04T00:05:50.283Z,67.36
2016-08-04T00:06:50.993Z,67.78
2016-08-04T00:07:51.000Z,67.3
2016-08-04T00:08:51.004Z,67.4
2016-08-04T00:09:50.301Z,67.01
2016-08-04T00:10:50.318Z,66.33
2016-08-04T00:11:50.318Z,66.33
2016-08-04T00:12:51.325Z,66.85
2016-08-04T00:13:50.324Z,66.63
2016-08-04T00:14:51.038Z,66.46
2016-08-04T00:15:51.039Z,66.53
2016-08-04T00:16:51.048Z,66.43
2016-08-04T00:17:50.348Z,66.46
2016-08-04T00:18:51.057Z,66.63
2016-08-04T00:20:50.362Z,66.53
2016-08-04T00:21:51.074Z,66.33
2016-08-04T00:22:50.374Z,66.43
2016-08-04T00:23:51.742Z,66.53
2016-08-04T00:24:51.091Z,66.82
2016-08-04T00:25:50.388Z,66.63
2016-08-04T00:26:50.394Z,67.11
2016-08-04T00:27:51.107Z,66.97
2016-08-04T00:28:51.111Z,67.27
2016-08-04T00:29:50.410Z,67.4
2016-08-04T00:30:51.124Z,66.63
2016-08-04T00:31:51.125Z,66.33
2016-08-04T00:32:50.580Z,66.33
2016-08-04T00:33:51.138Z,66.63
2016-08-04T00:34:50.442Z,66.53
2016-08-04T00:35:51.148Z,66.33
2016-08-04T00:36:51.153Z,66.72
2016-08-04T00:37:51.158Z,66.72
2016-08-04T00:38:51.172Z,67.01
2016-08-04T00:39:50.463Z,67.2
2016-08-04T00:40:51.177Z,67.49
2016-08-04T00:41:50.472Z,66.91
2016-08-04T00:42:50.475Z,66.91
2016-08-04T00:43:51.892Z,66.82
2016-08-04T00:44:51.198Z,66.24
2016-08-04T00:45:51.251Z,66.91
2016-08-04T00:46:50.500Z,66.43
2016-08-04T00:47:50.503Z,66.72
2016-08-04T00:48:51.215Z,66.24
2016-08-04T00:49:51.221Z,66.63
2016-08-04T00:50:51.234Z,66.43
2016-08-04T00:51:50.532Z,66.63
2016-08-04T00:52:50.528Z,66.63
2016-08-04T00:53:51.246Z,66.33
2016-08-04T00:54:51.592Z,66.72
2016-08-04T00:55:51.252Z,66.3
2016-08-04T00:56:51.202Z,66.63
2016-08-04T00:57:50.555Z,65.85
2016-08-04T00:58:50.574Z,65.85
2016-08-04T00:59:51.273Z,65.95
2016-08-04T01:00:51.278Z,65.75
2016-08-04T01:01:51.283Z,65.75
2016-08-04T01:02:50.579Z,65.75
2016-08-04T01:03:51.291Z,66.14
2016-08-04T01:04:51.296Z,65.95
2016-08-04T01:05:52.860Z,66.05
2016-08-04T01:06:50.598Z,65.95
2016-08-04T01:07:51.914Z,66.14
2016-08-04T01:08:50.610Z,66.14
2016-08-04T01:09:51.320Z,66.05
2016-08-04T01:10:50.621Z,66.24
2016-08-04T01:11:51.332Z,65.95
2016-08-04T01:12:51.340Z,65.95
2016-08-04T01:13:50.635Z,66.05
2016-08-04T01:14:51.352Z,65.95
2016-08-04T01:15:50.643Z,66.4
2016-08-04T01:16:50.649Z,66.05
2016-08-04T01:17:50.660Z,66.14
2016-08-04T01:18:52.367Z,65.95
2016-08-04T01:20:51.380Z,66.24
2016-08-04T01:21:50.673Z,66.01
2016-08-04T01:22:51.386Z,66.14
2016-08-04T01:23:50.685Z,65.95
2016-08-04T01:24:51.394Z,65.95
2016-08-04T01:25:50.692Z,65.75
2016-08-04T01:26:50.696Z,65.66
2016-08-04T01:27:50.905Z,65.75
2016-08-04T01:28:51.412Z,66.14
2016-08-04T01:29:50.715Z,65.75
2016-08-04T01:30:50.721Z,65.47
2016-08-04T01:31:51.443Z,65.37
2016-08-04T01:32:50.727Z,66.14
2016-08-04T01:33:50.732Z,66.24
2016-08-04T01:35:50.750Z,65.85
2016-08-04T01:36:50.751Z,65.85
2016-08-04T01:37:51.460Z,65.95
2016-08-04T01:38:51.564Z,65.66
2016-08-04T01:39:51.468Z,65.37
2016-08-04T01:40:50.766Z,65.66
2016-08-04T01:41:50.775Z,65.75
2016-08-04T01:42:51.483Z,65.82
2016-08-04T01:43:50.781Z,65.56
2016-08-04T01:44:51.491Z,65.63
2016-08-04T01:45:51.499Z,65.53
2016-08-04T01:46:51.604Z,65.27
2016-08-04T01:47:51.508Z,65.56
2016-08-04T01:48:51.156Z,65.72
2016-08-04T01:49:50.812Z,65.43
2016-08-04T01:50:51.672Z,65.72
2016-08-04T01:51:51.272Z,65.47
2016-08-04T01:52:51.534Z,65.82
2016-08-04T01:53:51.538Z,65.27
2016-08-04T01:54:51.542Z,64.86
2016-08-04T01:55:50.838Z,65.47
2016-08-04T01:56:51.552Z,65.43
2016-08-04T01:57:50.849Z,65.24
2016-08-04T01:58:51.562Z,64.76
2016-08-04T01:59:51.566Z,65.08
2016-08-04T02:00:50.862Z,65.72
2016-08-04T02:01:50.868Z,65.43
2016-08-04T02:02:52.682Z,65.72
2016-08-04T02:03:51.599Z,65.08
2016-08-04T02:04:50.891Z,65.08
2016-08-04T02:05:50.893Z,65.05
2016-08-04T02:06:50.891Z,65.17
2016-08-04T02:07:51.605Z,65.08
2016-08-04T02:08:50.903Z,65.08
2016-08-04T02:09:50.911Z,65.27
2016-08-04T02:10:51.618Z,64.79
2016-08-04T02:11:50.914Z,64.59
2016-08-04T02:12:51.625Z,65.08
2016-08-04T02:13:52.432Z,64.95
2016-08-04T02:14:50.930Z,64.47
2016-08-04T02:15:51.640Z,64.59
2016-08-04T02:16:50.940Z,64.69
2016-08-04T02:17:51.653Z,64.59
2016-08-04T02:18:51.658Z,64.69
2016-08-04T02:19:51.663Z,64.59
2016-08-04T02:20:51.670Z,65.37
2016-08-04T02:21:51.671Z,64.59
2016-08-04T02:22:52.425Z,64.69
2016-08-04T02:23:50.977Z,64.5
2016-08-04T02:24:51.381Z,64.31
2016-08-04T02:25:51.691Z,64.98
2016-08-04T02:26:51.697Z,64.4
2016-08-04T02:27:51.749Z,64.31
2016-08-04T02:28:51.010Z,64.69
2016-08-04T02:29:51.712Z,64.4
2016-08-04T02:30:51.010Z,64.56
2016-08-04T02:31:51.014Z,64.59
2016-08-04T02:32:51.726Z,64.5
2016-08-04T02:33:52.846Z,64.21
2016-08-04T02:34:51.735Z,64.21
2016-08-04T02:35:51.886Z,64.59
2016-08-04T02:36:51.040Z,64.59
2016-08-04T02:37:51.750Z,64.31
2016-08-04T02:38:51.051Z,64.79
2016-08-04T02:39:51.763Z,64.69
2016-08-04T02:40:51.767Z,64.5
2016-08-04T02:41:51.771Z,64.79
2016-08-04T02:42:51.066Z,64.47
2016-08-04T02:43:51.073Z,64.59
2016-08-04T02:44:52.650Z,64.5
2016-08-04T02:45:52.092Z,64.95
2016-08-04T02:46:51.089Z,65.05
2016-08-04T02:47:51.798Z,64.56
2016-08-04T02:48:51.807Z,65.27
2016-08-04T02:49:51.810Z,64.79
2016-08-04T02:50:51.110Z,64.76
2016-08-04T02:51:51.112Z,64.59
2016-08-04T02:52:51.124Z,64.56
2016-08-04T02:53:52.031Z,65.05
2016-08-04T02:54:51.836Z,64.86
2016-08-04T02:55:51.135Z,64.37
2016-08-04T02:56:52.844Z,64.66
2016-08-04T02:57:52.751Z,64.11
2016-08-04T02:58:51.147Z,64.37
2016-08-04T02:59:51.860Z,64.76
2016-08-04T03:00:51.865Z,64.11
2016-08-04T03:01:51.161Z,64.89
2016-08-04T03:02:51.873Z,64.08
2016-08-04T03:03:51.173Z,64.37
2016-08-04T03:04:52.484Z,64.56
2016-08-04T03:05:51.885Z,64.37
2016-08-04T03:06:51.892Z,63.92
2016-08-04T03:07:51.192Z,64.01
2016-08-04T03:08:51.196Z,64.01
2016-08-04T03:09:51.908Z,64.08
2016-08-04T03:10:51.910Z,63.98
2016-08-04T03:11:51.916Z,64.08
2016-08-04T03:12:51.216Z,63.98
2016-08-04T03:13:51.220Z,64.11
2016-08-04T03:14:51.226Z,63.7
2016-08-04T03:15:52.887Z,63.24
2016-08-04T03:16:51.239Z,63.12
2016-08-04T03:17:51.996Z,63.63
2016-08-04T03:18:51.246Z,63.73
2016-08-04T03:19:51.961Z,63.43
2016-08-04T03:20:51.962Z,63.21
2016-08-04T03:21:51.258Z,62.86
2016-08-04T03:22:51.973Z,63.12
2016-08-04T03:23:51.977Z,63.12
2016-08-04T03:24:51.323Z,63.79
2016-08-04T03:25:51.984Z,63.6
2016-08-04T03:26:51.287Z,63.02
2016-08-04T03:27:52.337Z,62.54
2016-08-04T03:28:52.455Z,63.12
2016-08-04T03:29:52.003Z,62.92
2016-08-04T03:30:51.303Z,62.92
2016-08-04T03:31:51.305Z,62.54
2016-08-04T03:32:51.312Z,62.82
2016-08-04T03:33:51.312Z,62.47
2016-08-04T03:34:52.026Z,62.92
2016-08-04T03:35:51.322Z,62.63
2016-08-04T03:36:51.330Z,63.12
2016-08-04T03:37:51.336Z,62.92
2016-08-04T03:38:52.045Z,62.63
2016-08-04T03:39:53.052Z,63.02
2016-08-04T03:40:51.349Z,62.63
2016-08-04T03:41:51.352Z,62.54
2016-08-04T03:42:52.066Z,62.73
2016-08-04T03:43:51.361Z,62.54
2016-08-04T03:44:51.374Z,62.54
2016-08-04T03:45:51.372Z,62.92
2016-08-04T03:46:52.134Z,62.44
2016-08-04T03:47:51.384Z,62.63
2016-08-04T03:48:51.483Z,62.54
2016-08-04T03:49:51.392Z,62.54
2016-08-04T03:50:53.218Z,62.44
2016-08-04T03:51:52.106Z,62.73
2016-08-04T03:52:51.405Z,62.25
2016-08-04T03:53:52.117Z,62.73
2016-08-04T03:54:51.413Z,62.08
2016-08-04T03:55:52.126Z,62.05
2016-08-04T03:56:52.130Z,62.18
2016-08-04T03:57:52.138Z,62.37
2016-08-04T03:58:52.144Z,62.34
2016-08-04T03:59:52.087Z,62.25
2016-08-04T04:00:51.445Z,62.25
2016-08-04T04:01:51.501Z,62.44
2016-08-04T04:02:52.163Z,62.44
2016-08-04T04:03:51.460Z,62.63
2016-08-04T04:04:51.463Z,62.44
2016-08-04T04:05:51.468Z,62.63
2016-08-04T04:06:52.180Z,62.54
2016-08-04T04:07:52.186Z,62.73
2016-08-04T04:08:51.485Z,61.96
2016-08-04T04:09:52.195Z,62.34
2016-08-04T04:10:52.753Z,62.44
2016-08-04T04:11:52.207Z,62.05
2016-08-04T04:12:52.360Z,62.05
2016-08-04T04:13:51.508Z,61.47
2016-08-04T04:14:52.232Z,61.47
2016-08-04T04:15:51.518Z,61.86
2016-08-04T04:16:51.521Z,62.34
2016-08-04T04:17:52.232Z,62.63
2016-08-04T04:18:52.287Z,62.05
2016-08-04T04:19:52.241Z,61.28
2016-08-04T04:20:51.543Z,61.57
2016-08-04T04:21:53.354Z,61.67
2016-08-04T04:22:52.256Z,61.38
2016-08-04T04:23:53.058Z,61.67
2016-08-04T04:24:51.558Z,61.47
2016-08-04T04:25:51.563Z,61.47
2016-08-04T04:26:51.568Z,61.19
2016-08-04T04:27:52.280Z,61.57
2016-08-04T04:28:51.578Z,61.38
2016-08-04T04:29:52.287Z,61.67
2016-08-04T04:30:51.590Z,61.96
2016-08-04T04:31:51.592Z,60.89
2016-08-04T04:32:52.303Z,61.09
2016-08-04T04:33:52.306Z,61.12
2016-08-04T04:34:53.435Z,61.22
2016-08-04T04:35:52.316Z,61.02
2016-08-04T04:36:52.322Z,61.19
2016-08-04T04:37:51.622Z,61.41
2016-08-04T04:38:51.627Z,61.51
2016-08-04T04:39:51.631Z,61.38
2016-08-04T04:40:51.636Z,60.51
2016-08-04T04:41:51.640Z,61.02
2016-08-04T04:42:52.354Z,61.19
2016-08-04T04:43:52.357Z,60.61
2016-08-04T04:44:51.655Z,60.61
2016-08-04T04:45:53.340Z,60.83
2016-08-04T04:46:52.424Z,60.71
2016-08-04T04:47:52.479Z,60.54
2016-08-04T04:48:52.385Z,60.71
2016-08-04T04:49:52.389Z,60.64
2016-08-04T04:50:52.395Z,59.93
2016-08-04T04:51:51.742Z,60.44
2016-08-04T04:52:52.404Z,60.8
2016-08-04T04:53:51.701Z,60.73
2016-08-04T04:55:06.583Z,60.31
2016-08-04T04:55:51.711Z,60.03
2016-08-04T04:56:52.422Z,60.31
2016-08-04T04:57:51.723Z,60.16
2016-08-04T04:58:51.726Z,60.16
2016-08-04T04:59:52.436Z,60.25
2016-08-04T05:00:52.439Z,60.54
2016-08-04T05:01:52.446Z,60.25
2016-08-04T05:02:51.747Z,59.86
2016-08-04T05:03:52.457Z,59.77
2016-08-04T05:04:52.462Z,60.06
2016-08-04T05:06:52.478Z,59.38
2016-08-04T05:07:53.190Z,58.54
2016-08-04T05:08:52.486Z,59.12
2016-08-04T05:09:51.782Z,58.51
2016-08-04T05:10:52.495Z,58.64
2016-08-04T05:11:52.500Z,58.15
2016-08-04T05:12:52.507Z,58.15
2016-08-04T05:13:52.512Z,57.96
2016-08-04T05:14:52.518Z,57.77
2016-08-04T05:15:52.528Z,57.96
2016-08-04T05:16:51.822Z,57.09
2016-08-04T05:17:52.540Z,57.67
2016-08-04T05:18:51.836Z,57.38
2016-08-04T05:19:51.842Z,57.09
2016-08-04T05:21:52.560Z,57.21
2016-08-04T05:22:52.570Z,57.48
2016-08-04T05:23:52.571Z,56.8
2016-08-04T05:24:52.580Z,56.9
2016-08-04T05:25:52.584Z,56.83
2016-08-04T05:26:52.641Z,57.6
2016-08-04T05:27:52.389Z,57.41
2016-08-04T05:28:52.610Z,56.99
2016-08-04T05:29:52.609Z,57.29
2016-08-04T05:30:52.618Z,57.29
2016-08-04T05:31:52.621Z,57.48
2016-08-04T05:32:51.920Z,57.38
2016-08-04T05:33:52.633Z,56.8
2016-08-04T05:34:51.932Z,57.29
2016-08-04T05:35:52.654Z,57.29
2016-08-04T05:36:52.653Z,56.99
2016-08-04T05:37:52.672Z,56.99
2016-08-04T05:38:53.169Z,57.38
2016-08-04T05:39:52.672Z,57.19
2016-08-04T05:40:52.074Z,57.38
2016-08-04T05:41:52.680Z,57.19
2016-08-04T05:42:51.982Z,57.48
2016-08-04T05:43:52.697Z,56.8
2016-08-04T05:44:52.698Z,56.83
2016-08-04T05:45:52.708Z,56.35
2016-08-04T05:46:52.713Z,56.54
2016-08-04T05:47:52.066Z,56.25
2016-08-04T05:48:52.021Z,56.25
2016-08-04T05:49:53.488Z,56.45
2016-08-04T05:50:52.030Z,56.25
2016-08-04T05:51:53.147Z,56.54
2016-08-04T05:52:52.752Z,56.61
2016-08-04T05:53:52.052Z,56.15
2016-08-04T05:54:52.107Z,56.73
2016-08-04T05:55:52.771Z,56.35
2016-08-04T05:56:52.071Z,56.45
2016-08-04T05:57:52.783Z,56.25
2016-08-04T05:58:52.086Z,56.45
2016-08-04T05:59:53.295Z,56.73
2016-08-04T06:00:52.093Z,56.15
2016-08-04T06:01:52.807Z,56.73
2016-08-04T06:02:54.024Z,56.13
2016-08-04T06:03:52.822Z,56.63
2016-08-04T06:04:52.124Z,56.99
2016-08-04T06:05:52.833Z,57.38
2016-08-04T06:06:52.129Z,57.57
2016-08-04T06:07:52.848Z,56.8
2016-08-04T06:08:52.143Z,57.09
2016-08-04T06:09:52.861Z,57.67
2016-08-04T06:10:52.353Z,56.71
2016-08-04T06:11:52.868Z,56.99
2016-08-04T06:12:52.166Z,56.8
2016-08-04T06:13:53.409Z,56.8
2016-08-04T06:14:52.884Z,56.8
2016-08-04T06:15:52.887Z,56.32
2016-08-04T06:16:52.896Z,56.9
2016-08-04T06:17:52.905Z,57.29
2016-08-04T06:18:52.917Z,57.48
2016-08-04T06:19:52.258Z,56.9
2016-08-04T06:20:52.924Z,56.8
2016-08-04T06:21:52.928Z,56.8
2016-08-04T06:22:52.223Z,56.51
2016-08-04T06:23:52.943Z,56.41
2016-08-04T06:24:53.937Z,56.25
2016-08-04T06:25:52.944Z,56.22
2016-08-04T06:26:52.253Z,56.22
2016-08-04T06:27:53.022Z,56.51
2016-08-04T06:28:52.258Z,56.15
2016-08-04T06:29:52.263Z,55.93
2016-08-04T06:30:52.270Z,56.71
2016-08-04T06:31:52.980Z,56.32
2016-08-04T06:32:52.279Z,56.32
2016-08-04T06:33:53.037Z,56.61
2016-08-04T06:34:52.290Z,56.13
2016-08-04T06:35:53.103Z,56.8
2016-08-04T06:36:53.110Z,56.41
2016-08-04T06:37:53.018Z,56.41
2016-08-04T06:38:53.018Z,56.9
2016-08-04T06:39:53.125Z,56.71
2016-08-04T06:40:53.230Z,56.61
2016-08-04T06:41:53.037Z,56.32
2016-08-04T06:42:53.041Z,56.45
2016-08-04T06:43:52.440Z,56.32
2016-08-04T06:44:54.104Z,56.13
2016-08-04T06:45:52.352Z,56.61
2016-08-04T06:46:52.658Z,56.41
2016-08-04T06:47:52.461Z,56.41
2016-08-04T06:48:52.369Z,56.41
2016-08-04T06:49:52.374Z,56.61
2016-08-04T06:50:52.377Z,56.51
2016-08-04T06:51:53.096Z,56.41
2016-08-04T06:52:52.389Z,56.41
2016-08-04T06:53:53.111Z,55.55
2016-08-04T06:55:07.278Z,56.32
2016-08-04T06:55:52.455Z,56.41
2016-08-04T06:56:53.118Z,55.93
2016-08-04T06:57:52.420Z,56.22
2016-08-04T06:58:52.424Z,56.22
2016-08-04T06:59:53.136Z,56.71
2016-08-04T07:00:53.139Z,56.22
2016-08-04T07:01:52.438Z,56.41
2016-08-04T07:02:53.152Z,56.71
2016-08-04T07:03:53.161Z,56.51
2016-08-04T07:04:53.163Z,56.13
2016-08-04T07:05:53.169Z,56.03
2016-08-04T07:06:54.126Z,56.32
2016-08-04T07:07:53.178Z,56.71
2016-08-04T07:08:52.630Z,56.41
2016-08-04T07:09:52.491Z,56.51
2016-08-04T07:10:53.202Z,56.61
2016-08-04T07:11:52.494Z,56.71
2016-08-04T07:12:53.258Z,56.22
2016-08-04T07:13:52.520Z,56.22
2016-08-04T07:14:53.218Z,56.03
2016-08-04T07:15:52.533Z,56.41
2016-08-04T07:16:53.230Z,56.32
2016-08-04T07:17:53.530Z,56.41
2016-08-04T07:18:53.240Z,55.83
2016-08-04T07:19:52.539Z,56.13
2016-08-04T07:20:52.542Z,55.65
2016-08-04T07:21:52.554Z,55.45
2016-08-04T07:22:53.263Z,55.74
2016-08-04T07:23:53.278Z,55.26
2016-08-04T07:24:53.273Z,55.26
2016-08-04T07:25:53.278Z,54.77
2016-08-04T07:26:52.575Z,54.9
2016-08-04T07:27:52.583Z,54.9
2016-08-04T07:28:53.851Z,54.41
2016-08-04T07:29:52.595Z,54.9
2016-08-04T07:30:52.599Z,54.32
2016-08-04T07:31:52.905Z,54.61
2016-08-04T07:32:54.170Z,55.07
2016-08-04T07:33:53.845Z,54.87
2016-08-04T07:34:52.926Z,54.97
2016-08-04T07:35:53.338Z,54.97
2016-08-04T07:36:53.358Z,55.47
2016-08-04T07:37:53.348Z,54.99
2016-08-04T07:38:52.647Z,55.35
2016-08-04T07:39:52.653Z,55.26
2016-08-04T07:40:52.709Z,55.26
2016-08-04T07:41:52.666Z,55.45
2016-08-04T07:42:52.669Z,55.45
2016-08-04T07:43:53.676Z,55.83
2016-08-04T07:44:52.685Z,54.99
2016-08-04T07:45:53.398Z,55.35
2016-08-04T07:46:52.695Z,55.16
2016-08-04T07:47:53.409Z,54.97
2016-08-04T07:48:53.466Z,54.8
2016-08-04T07:49:52.713Z,54.97
2016-08-04T07:50:53.423Z,54.8
2016-08-04T07:51:52.727Z,55.16
2016-08-04T07:52:52.731Z,54.99
2016-08-04T07:53:53.444Z,55.65
2016-08-04T07:54:53.848Z,54.99
2016-08-04T07:55:53.454Z,54.99
2016-08-04T07:56:52.752Z,55.19
2016-08-04T07:57:53.465Z,54.99
2016-08-04T07:58:53.473Z,54.8
2016-08-04T07:59:53.577Z,54.99
2016-08-04T08:00:53.485Z,55.26
2016-08-04T08:01:52.785Z,55.07
2016-08-04T08:02:53.497Z,54.97
2016-08-04T08:03:53.504Z,54.87
2016-08-04T08:04:53.504Z,54.9
2016-08-04T08:05:53.609Z,54.9
2016-08-04T08:06:53.519Z,55.35
2016-08-04T08:07:52.818Z,55.45
2016-08-04T08:08:52.821Z,54.68
2016-08-04T08:09:52.828Z,55.35
2016-08-04T08:10:52.835Z,54.97
2016-08-04T08:11:52.841Z,55.45
2016-08-04T08:12:53.604Z,55.35
2016-08-04T08:13:53.557Z,54.58
2016-08-04T08:14:52.858Z,54.97
2016-08-04T08:15:52.863Z,54.87
2016-08-04T08:16:53.925Z,54.97
2016-08-04T08:17:53.582Z,54.58
2016-08-04T08:18:52.881Z,54.22
2016-08-04T08:19:53.592Z,54.58
2016-08-04T08:20:52.891Z,54.68
2016-08-04T08:21:52.906Z,54.87
2016-08-04T08:22:52.904Z,54.77
2016-08-04T08:23:53.618Z,54.77
2016-08-04T08:24:53.619Z,54.29
2016-08-04T08:25:52.974Z,54.39
2016-08-04T08:26:52.925Z,54.58
2016-08-04T08:27:54.541Z,54.71
2016-08-04T08:28:52.937Z,54.51
2016-08-04T08:29:53.651Z,54.61
2016-08-04T08:30:53.705Z,54.68
2016-08-04T08:31:52.954Z,54.41
2016-08-04T08:32:53.669Z,54.19
2016-08-04T08:33:53.675Z,54.49
2016-08-04T08:34:52.975Z,54.29
2016-08-04T08:35:53.688Z,54.71
2016-08-04T08:36:53.694Z,53.71
2016-08-04T08:37:53.699Z,54.19
2016-08-04T08:38:52.996Z,54.58
2016-08-04T08:39:53.709Z,54.13
2016-08-04T08:40:53.763Z,54.68
2016-08-04T08:41:53.769Z,54.29
2016-08-04T08:42:53.724Z,54.49
2016-08-04T08:43:53.730Z,54.29
2016-08-04T08:44:53.077Z,54.87
2016-08-04T08:45:53.749Z,54.49
2016-08-04T08:46:53.745Z,54.49
2016-08-04T08:47:53.754Z,54.58
2016-08-04T08:48:53.763Z,54.68
2016-08-04T08:49:53.071Z,54.8
2016-08-04T08:50:53.770Z,54.68
2016-08-04T08:51:53.772Z,54.49
2016-08-04T08:52:53.778Z,54.58
2016-08-04T08:53:53.785Z,54.87
2016-08-04T08:54:53.800Z,54.87
2016-08-04T08:55:53.093Z,54.61
2016-08-04T08:56:53.803Z,54.77
2016-08-04T08:57:53.810Z,54.87
2016-08-04T08:58:53.814Z,54.58
2016-08-04T08:59:53.114Z,54.58
2016-08-04T09:00:54.777Z,54.39
2016-08-04T09:01:53.123Z,54.1
2016-08-04T09:02:53.332Z,54.29
2016-08-04T09:03:53.895Z,54.41
2016-08-04T09:04:53.857Z,54.39
2016-08-04T09:05:53.148Z,54.29
2016-08-04T09:06:53.155Z,54.1
2016-08-04T09:07:53.158Z,54.39
2016-08-04T09:08:53.872Z,54.1
2016-08-04T09:09:53.877Z,54.29
2016-08-04T09:10:53.176Z,54.19
2016-08-04T09:11:54.735Z,54.29
2016-08-04T09:12:53.195Z,54.49
2016-08-04T09:13:53.950Z,54.19
2016-08-04T09:14:53.957Z,54.58
2016-08-04T09:15:53.909Z,54.39
2016-08-04T09:16:53.213Z,54.19
2016-08-04T09:17:53.922Z,53.81
2016-08-04T09:18:53.928Z,54.19
2016-08-04T09:19:53.932Z,54.1
2016-08-04T09:20:53.231Z,54.49
2016-08-04T09:21:53.235Z,53.74
2016-08-04T09:22:53.241Z,53.81
2016-08-04T09:23:53.245Z,53.52
2016-08-04T09:24:54.361Z,54.1
2016-08-04T09:25:54.019Z,54.19
2016-08-04T09:26:54.832Z,53.71
2016-08-04T09:27:53.978Z,54.29
2016-08-04T09:28:53.278Z,54.49
2016-08-04T09:29:53.282Z,53.81
2016-08-04T09:30:53.994Z,53.81
2016-08-04T09:31:53.296Z,54.13
2016-08-04T09:32:53.300Z,53.83
2016-08-04T09:33:54.013Z,53.93
2016-08-04T09:34:54.019Z,53.55
2016-08-04T09:35:54.325Z,53.55
2016-08-04T09:37:54.037Z,53.83
2016-08-04T09:38:54.046Z,53.83
2016-08-04T09:39:53.422Z,53.55
2016-08-04T09:40:53.350Z,53.83
2016-08-04T09:41:54.066Z,54.03
2016-08-04T09:42:53.408Z,53.74
2016-08-04T09:43:54.074Z,53.61
2016-08-04T09:44:54.079Z,53.91
2016-08-04T09:45:53.377Z,53.74
2016-08-04T09:46:54.591Z,53.93
2016-08-04T09:47:54.097Z,53.74
2016-08-04T09:48:55.081Z,53.83
2016-08-04T09:49:53.402Z,53.91
2016-08-04T09:50:54.111Z,53.61
2016-08-04T09:52:54.174Z,53.81
2016-08-04T09:53:54.130Z,54.77
2016-08-04T09:54:54.141Z,54.58
2016-08-04T09:55:53.439Z,54.1
2016-08-04T09:56:54.145Z,53.71
2016-08-04T09:57:54.399Z,54.77
2016-08-04T09:58:54.159Z,53.45
2016-08-04T09:59:54.167Z,54
2016-08-04T10:00:53.463Z,53.61
2016-08-04T10:01:54.378Z,53.91
2016-08-04T10:02:54.179Z,53.81
2016-08-04T10:03:53.487Z,53.83
2016-08-04T10:04:54.190Z,53.71
2016-08-04T10:05:54.199Z,53.61
2016-08-04T10:06:54.202Z,54
2016-08-04T10:07:53.503Z,53.55
2016-08-04T10:08:54.668Z,53.52
2016-08-04T10:09:53.560Z,53.64
2016-08-04T10:10:53.518Z,54.1
2016-08-04T10:11:53.523Z,53.61
2016-08-04T10:12:54.638Z,53.71
2016-08-04T10:13:53.536Z,53.74
2016-08-04T10:14:53.541Z,53.83
2016-08-04T10:15:54.254Z,53.42
2016-08-04T10:16:53.555Z,53.91
2016-08-04T10:17:54.272Z,53.71
2016-08-04T10:18:53.569Z,53.61
2016-08-04T10:19:53.574Z,53.52
2016-08-04T10:20:54.282Z,53.52
2016-08-04T10:21:53.579Z,53.71
2016-08-04T10:22:53.586Z,53.71
2016-08-04T10:23:53.992Z,53.61
2016-08-04T10:24:53.597Z,53.61
2016-08-04T10:25:54.392Z,53.45
2016-08-04T10:26:54.316Z,53.61
2016-08-04T10:27:54.327Z,53.55
2016-08-04T10:28:53.617Z,53.55
2016-08-04T10:29:54.332Z,53.45
2016-08-04T10:30:54.339Z,53.64
2016-08-04T10:31:53.642Z,53.81
2016-08-04T10:32:55.302Z,53.83
2016-08-04T10:33:53.649Z,53.93
2016-08-04T10:34:54.634Z,54.13
2016-08-04T10:35:53.657Z,53.45
2016-08-04T10:36:54.375Z,53.93
2016-08-04T10:37:53.670Z,54.03
2016-08-04T10:38:54.383Z,53.64
2016-08-04T10:39:53.680Z,53.83
2016-08-04T10:40:54.394Z,53.83
2016-08-04T10:41:54.398Z,53.93
2016-08-04T10:42:53.699Z,53.64
2016-08-04T10:43:54.618Z,54
2016-08-04T10:44:53.716Z,53.61
2016-08-04T10:45:55.226Z,53.61
2016-08-04T10:46:53.729Z,53.71
2016-08-04T10:47:53.729Z,53.42
2016-08-04T10:48:54.442Z,53.71
2016-08-04T10:49:53.740Z,53.91
2016-08-04T10:50:54.449Z,53.61
2016-08-04T10:51:53.753Z,53.71
2016-08-04T10:52:54.472Z,53.91
2016-08-04T10:53:53.765Z,54
2016-08-04T10:54:55.447Z,53.55
2016-08-04T10:55:53.778Z,53.64
2016-08-04T10:56:54.693Z,53.91
2016-08-04T10:57:53.787Z,53.52
2016-08-04T10:58:53.843Z,53.52
2016-08-04T10:59:54.507Z,53.91
2016-08-04T11:00:54.513Z,53.81
2016-08-04T11:01:54.515Z,53.71
2016-08-04T11:02:54.677Z,53.61
2016-08-04T11:03:54.533Z,53.71
2016-08-04T11:04:54.531Z,53.42
2016-08-04T11:05:53.832Z,53.61
2016-08-04T11:06:54.542Z,53.81
2016-08-04T11:07:54.849Z,53.61
2016-08-04T11:08:54.556Z,53.52
2016-08-04T11:09:53.905Z,54
2016-08-04T11:10:53.860Z,53.81
2016-08-04T11:11:54.569Z,53.71
2016-08-04T11:12:54.578Z,53.55
2016-08-04T11:13:53.881Z,53.61
2016-08-04T11:14:54.591Z,53.55
2016-08-04T11:15:54.594Z,54
2016-08-04T11:16:53.894Z,53.81
2016-08-04T11:17:54.608Z,53.23
2016-08-04T11:18:54.358Z,53.52
2016-08-04T11:19:54.625Z,53.42
2016-08-04T11:20:55.724Z,53.64
2016-08-04T11:21:53.925Z,53.33
2016-08-04T11:22:53.930Z,53.61
2016-08-04T11:23:54.645Z,53.16
2016-08-04T11:24:54.647Z,53.33
2016-08-04T11:25:53.947Z,53.33
2016-08-04T11:26:54.663Z,54
2016-08-04T11:27:54.107Z,52.94
2016-08-04T11:28:54.018Z,53.71
2016-08-04T11:29:54.825Z,53.55
2016-08-04T11:30:54.684Z,53.03
2016-08-04T11:31:53.983Z,53.33
2016-08-04T11:32:54.695Z,52.84
2016-08-04T11:33:53.996Z,53.03
2016-08-04T11:34:54.146Z,52.75
2016-08-04T11:35:54.712Z,52.39
2016-08-04T11:36:54.886Z,52.94
2016-08-04T11:37:54.022Z,52.84
2016-08-04T11:38:54.023Z,53.03
2016-08-04T11:39:54.737Z,53.33
2016-08-04T11:40:54.535Z,52.87
2016-08-04T11:41:54.040Z,52.87
2016-08-04T11:42:54.046Z,53.03
2016-08-04T11:43:54.054Z,52.84
2016-08-04T11:44:54.059Z,52.75
2016-08-04T11:45:54.770Z,52.77
2016-08-04T11:46:54.826Z,53.33
2016-08-04T11:47:54.123Z,52.94
2016-08-04T11:48:54.790Z,52.45
2016-08-04T11:49:54.795Z,52.84
2016-08-04T11:50:54.145Z,52.97
2016-08-04T11:51:54.100Z,53.03
2016-08-04T11:52:54.919Z,52.17
2016-08-04T11:53:54.150Z,52.26
2016-08-04T11:54:54.827Z,52.65
2016-08-04T11:55:54.842Z,52.17
2016-08-04T11:56:54.132Z,52
2016-08-04T11:57:54.891Z,51.9
2016-08-04T11:58:54.902Z,52.45
2016-08-04T11:59:54.855Z,52.19
2016-08-04T12:00:54.860Z,51.97
2016-08-04T12:01:54.866Z,52.07
2016-08-04T12:02:54.165Z,52.36
2016-08-04T12:03:54.876Z,52.17
2016-08-04T12:04:55.585Z,51.97
2016-08-04T12:05:54.890Z,52.07
2016-08-04T12:06:55.151Z,52.07
2016-08-04T12:07:54.906Z,51.97
2016-08-04T12:08:54.907Z,51.97
2016-08-04T12:09:54.913Z,52.17
2016-08-04T12:10:54.210Z,52.26
2016-08-04T12:11:54.220Z,52.36
2016-08-04T12:12:54.223Z,52.17
2016-08-04T12:13:54.937Z,52.36
2016-08-04T12:14:54.991Z,52.26
2016-08-04T12:15:55.289Z,51.97
2016-08-04T12:16:55.006Z,52.45
2016-08-04T12:17:54.963Z,51.87
2016-08-04T12:18:54.257Z,52.09
2016-08-04T12:19:55.120Z,52.09
2016-08-04T12:20:54.973Z,52.45
2016-08-04T12:21:55.096Z,52.17
2016-08-04T12:22:54.278Z,52.36
2016-08-04T12:23:54.280Z,52.17
2016-08-04T12:24:55.004Z,52.36
2016-08-04T12:25:55.001Z,52.55
2016-08-04T12:26:55.956Z,51.59
2016-08-04T12:27:54.355Z,52.36
2016-08-04T12:28:54.364Z,52.07
2016-08-04T12:29:55.037Z,52.36
2016-08-04T12:30:54.321Z,52.07
2016-08-04T12:31:55.034Z,51.78
2016-08-04T12:32:54.334Z,52.36
2016-08-04T12:33:55.095Z,52.45
2016-08-04T12:34:55.051Z,52
2016-08-04T12:35:55.058Z,52.55
2016-08-04T12:36:54.359Z,51.68
2016-08-04T12:37:55.312Z,51.78
2016-08-04T12:38:54.415Z,52.36
2016-08-04T12:39:55.083Z,52.26
2016-08-04T12:41:09.257Z,51.68
2016-08-04T12:41:54.383Z,52.26
2016-08-04T12:42:54.389Z,52.19
2016-08-04T12:43:55.098Z,52.36
2016-08-04T12:44:55.159Z,52.17
2016-08-04T12:45:55.112Z,52.36
2016-08-04T12:46:54.412Z,52.17
2016-08-04T12:47:54.421Z,51.87
2016-08-04T12:48:54.421Z,51.97
2016-08-04T12:49:55.159Z,52.17
2016-08-04T12:50:54.439Z,52.26
2016-08-04T12:51:55.262Z,52.45
2016-08-04T12:52:55.547Z,52.07
2016-08-04T12:53:55.160Z,51.68
2016-08-04T12:54:54.455Z,51.97
2016-08-04T12:55:54.460Z,52.36
2016-08-04T12:56:55.176Z,51.87
2016-08-04T12:57:55.978Z,52.07
2016-08-04T12:58:54.527Z,52.17
2016-08-04T12:59:54.483Z,51.68
2016-08-04T13:00:55.547Z,52.17
2016-08-04T13:01:54.646Z,52.07
2016-08-04T13:02:55.208Z,51.97